sensor_id;sensor_type;location;lat;lon;timestamp;P1;durP1;ratioP1;P2;durP2;ratioP2
55368;SDS011;41247;49.736;8.752;2023-08-30T00:00:00;8.05;;;4.68;;
55368;SDS011;41247;49.736;8.752;2023-08-30T00:03:40;7.25;;;5.25;;
55368;SDS011;41247;49.736;8.752;2023-08-30T00:07:21;20.42;;;5.82;;
55368;SDS011;41247;49.736;8.752;2023-08-30T00:11:01;10.60;;;6.15;;
55368;SDS011;41247;49.736;8.752;2023-08-30T00:14:42;12.55;;;6.45;;
55368;SDS011;41247;49.736;8.752;2023-08-30T00:18:23;6.53;;;4.68;;
55368;SDS011;41247;49.736;8.752;2023-08-30T00:22:03;8.93;;;4.75;;
55368;SDS011;41247;49.736;8.752;2023-08-30T00:25:44;8.85;;;5.82;;
55368;SDS011;41247;49.736;8.752;2023-08-30T00:29:24;13.73;;;7.55;;
55368;SDS011;41247;49.736;8.752;2023-08-30T00:33:14;11.50;;;7.07;;
55368;SDS011;41247;49.736;8.752;2023-08-30T00:36:55;10.00;;;7.22;;
55368;SDS011;41247;49.736;8.752;2023-08-30T00:40:37;10.75;;;8.20;;
55368;SDS011;41247;49.736;8.752;2023-08-30T00:44:19;14.57;;;9.30;;
55368;SDS011;41247;49.736;8.752;2023-08-30T00:47:59;13.02;;;9.13;;
55368;SDS011;41247;49.736;8.752;2023-08-30T00:51:40;11.20;;;8.20;;
55368;SDS011;41247;49.736;8.752;2023-08-30T00:55:21;12.82;;;8.48;;
55368;SDS011;41247;49.736;8.752;2023-08-30T00:59:01;15.65;;;8.73;;
55368;SDS011;41247;49.736;8.752;2023-08-30T01:02:42;15.18;;;8.77;;
55368;SDS011;41247;49.736;8.752;2023-08-30T01:06:23;15.63;;;8.93;;
55368;SDS011;41247;49.736;8.752;2023-08-30T01:10:05;14.10;;;8.57;;
55368;SDS011;41247;49.736;8.752;2023-08-30T01:13:50;10.70;;;7.18;;
55368;SDS011;41247;49.736;8.752;2023-08-30T01:17:36;11.13;;;6.57;;
55368;SDS011;41247;49.736;8.752;2023-08-30T01:21:27;8.75;;;5.60;;
55368;SDS011;41247;49.736;8.752;2023-08-30T01:29:07;7.28;;;5.25;;
55368;SDS011;41247;49.736;8.752;2023-08-30T01:32:51;7.95;;;4.88;;
55368;SDS011;41247;49.736;8.752;2023-08-30T01:36:32;8.75;;;5.00;;
55368;SDS011;41247;49.736;8.752;2023-08-30T01:40:13;7.25;;;4.57;;
55368;SDS011;41247;49.736;8.752;2023-08-30T01:47:43;5.95;;;4.50;;
55368;SDS011;41247;49.736;8.752;2023-08-30T01:51:24;5.47;;;3.90;;
55368;SDS011;41247;49.736;8.752;2023-08-30T01:55:05;4.85;;;3.53;;
55368;SDS011;41247;49.736;8.752;2023-08-30T01:58:48;4.68;;;3.97;;
55368;SDS011;41247;49.736;8.752;2023-08-30T02:02:29;5.90;;;3.55;;
55368;SDS011;41247;49.736;8.752;2023-08-30T02:06:15;5.28;;;4.45;;
55368;SDS011;41247;49.736;8.752;2023-08-30T02:10:02;7.07;;;4.68;;
55368;SDS011;41247;49.736;8.752;2023-08-30T02:13:49;6.38;;;4.65;;
55368;SDS011;41247;49.736;8.752;2023-08-30T02:17:32;6.25;;;4.50;;
55368;SDS011;41247;49.736;8.752;2023-08-30T02:21:15;8.10;;;4.50;;
55368;SDS011;41247;49.736;8.752;2023-08-30T02:24:56;5.25;;;4.22;;
55368;SDS011;41247;49.736;8.752;2023-08-30T02:28:37;6.00;;;4.63;;
55368;SDS011;41247;49.736;8.752;2023-08-30T02:32:17;10.02;;;5.30;;
55368;SDS011;41247;49.736;8.752;2023-08-30T02:35:58;8.90;;;6.95;;
55368;SDS011;41247;49.736;8.752;2023-08-30T02:39:38;10.10;;;6.93;;
55368;SDS011;41247;49.736;8.752;2023-08-30T02:43:19;9.32;;;6.53;;
55368;SDS011;41247;49.736;8.752;2023-08-30T02:46:59;10.07;;;7.05;;
55368;SDS011;41247;49.736;8.752;2023-08-30T02:50:40;10.93;;;8.38;;
55368;SDS011;41247;49.736;8.752;2023-08-30T02:54:28;11.40;;;8.02;;
55368;SDS011;41247;49.736;8.752;2023-08-30T02:58:08;10.98;;;8.65;;
55368;SDS011;41247;49.736;8.752;2023-08-30T03:01:49;10.75;;;8.07;;
55368;SDS011;41247;49.736;8.752;2023-08-30T03:05:30;12.20;;;7.72;;
55368;SDS011;41247;49.736;8.752;2023-08-30T03:09:10;11.07;;;7.35;;
55368;SDS011;41247;49.736;8.752;2023-08-30T03:12:51;11.45;;;7.45;;
55368;SDS011;41247;49.736;8.752;2023-08-30T03:16:31;11.07;;;7.40;;
55368;SDS011;41247;49.736;8.752;2023-08-30T03:20:12;11.73;;;7.22;;
55368;SDS011;41247;49.736;8.752;2023-08-30T03:23:52;10.38;;;7.43;;
55368;SDS011;41247;49.736;8.752;2023-08-30T03:27:33;8.90;;;6.65;;
55368;SDS011;41247;49.736;8.752;2023-08-30T03:31:14;8.45;;;5.63;;
55368;SDS011;41247;49.736;8.752;2023-08-30T03:35:00;10.13;;;6.97;;
55368;SDS011;41247;49.736;8.752;2023-08-30T03:38:41;8.45;;;7.00;;
55368;SDS011;41247;49.736;8.752;2023-08-30T03:42:22;11.80;;;8.00;;
55368;SDS011;41247;49.736;8.752;2023-08-30T03:46:03;14.27;;;9.38;;
55368;SDS011;41247;49.736;8.752;2023-08-30T03:49:44;15.68;;;8.52;;
55368;SDS011;41247;49.736;8.752;2023-08-30T03:53:25;13.82;;;9.95;;
55368;SDS011;41247;49.736;8.752;2023-08-30T03:57:06;14.43;;;10.20;;
55368;SDS011;41247;49.736;8.752;2023-08-30T04:00:47;17.55;;;10.55;;
55368;SDS011;41247;49.736;8.752;2023-08-30T04:04:32;13.07;;;9.80;;
55368;SDS011;41247;49.736;8.752;2023-08-30T04:08:13;12.93;;;9.48;;
55368;SDS011;41247;49.736;8.752;2023-08-30T04:11:54;13.93;;;9.57;;
55368;SDS011;41247;49.736;8.752;2023-08-30T04:15:35;12.35;;;8.85;;
55368;SDS011;41247;49.736;8.752;2023-08-30T04:19:16;16.08;;;9.73;;
55368;SDS011;41247;49.736;8.752;2023-08-30T04:22:57;12.23;;;9.80;;
55368;SDS011;41247;49.736;8.752;2023-08-30T04:26:39;14.65;;;10.23;;
55368;SDS011;41247;49.736;8.752;2023-08-30T04:30:19;13.23;;;10.07;;
55368;SDS011;41247;49.736;8.752;2023-08-30T04:34:00;11.27;;;8.27;;
55368;SDS011;41247;49.736;8.752;2023-08-30T04:37:41;20.48;;;14.18;;
55368;SDS011;41247;49.736;8.752;2023-08-30T04:41:21;20.95;;;14.40;;
55368;SDS011;41247;49.736;8.752;2023-08-30T04:45:02;21.85;;;16.85;;
55368;SDS011;41247;49.736;8.752;2023-08-30T04:48:44;23.13;;;17.38;;
55368;SDS011;41247;49.736;8.752;2023-08-30T04:52:25;25.27;;;16.88;;
55368;SDS011;41247;49.736;8.752;2023-08-30T04:56:12;23.95;;;18.25;;
55368;SDS011;41247;49.736;8.752;2023-08-30T04:59:55;22.15;;;17.42;;
55368;SDS011;41247;49.736;8.752;2023-08-30T05:03:37;27.38;;;20.20;;
55368;SDS011;41247;49.736;8.752;2023-08-30T05:07:17;24.73;;;17.20;;
55368;SDS011;41247;49.736;8.752;2023-08-30T05:10:58;22.85;;;18.00;;
55368;SDS011;41247;49.736;8.752;2023-08-30T05:14:40;22.35;;;17.65;;
55368;SDS011;41247;49.736;8.752;2023-08-30T05:22:07;24.40;;;17.15;;
55368;SDS011;41247;49.736;8.752;2023-08-30T05:25:48;24.25;;;19.85;;
55368;SDS011;41247;49.736;8.752;2023-08-30T05:29:29;28.48;;;19.52;;
55368;SDS011;41247;49.736;8.752;2023-08-30T05:33:10;25.75;;;18.73;;
55368;SDS011;41247;49.736;8.752;2023-08-30T05:40:35;26.67;;;19.90;;
55368;SDS011;41247;49.736;8.752;2023-08-30T05:44:16;24.55;;;19.02;;
55368;SDS011;41247;49.736;8.752;2023-08-30T05:47:56;27.27;;;18.90;;
55368;SDS011;41247;49.736;8.752;2023-08-30T05:51:38;24.50;;;19.90;;
55368;SDS011;41247;49.736;8.752;2023-08-30T05:55:19;22.98;;;18.75;;
55368;SDS011;41247;49.736;8.752;2023-08-30T05:59:03;20.75;;;17.23;;
55368;SDS011;41247;49.736;8.752;2023-08-30T06:02:43;25.65;;;18.13;;
55368;SDS011;41247;49.736;8.752;2023-08-30T06:06:24;18.92;;;16.20;;
55368;SDS011;41247;49.736;8.752;2023-08-30T06:10:04;18.73;;;15.50;;
55368;SDS011;41247;49.736;8.752;2023-08-30T06:13:55;18.50;;;15.40;;
55368;SDS011;41247;49.736;8.752;2023-08-30T06:21:21;17.33;;;13.10;;
55368;SDS011;41247;49.736;8.752;2023-08-30T06:25:02;21.52;;;14.85;;
55368;SDS011;41247;49.736;8.752;2023-08-30T06:28:42;21.15;;;16.27;;
55368;SDS011;41247;49.736;8.752;2023-08-30T06:32:23;18.42;;;15.27;;
55368;SDS011;41247;49.736;8.752;2023-08-30T06:36:04;19.20;;;14.50;;
55368;SDS011;41247;49.736;8.752;2023-08-30T06:39:45;20.10;;;15.18;;
55368;SDS011;41247;49.736;8.752;2023-08-30T06:43:26;18.30;;;14.05;;
55368;SDS011;41247;49.736;8.752;2023-08-30T06:47:07;20.95;;;15.10;;
55368;SDS011;41247;49.736;8.752;2023-08-30T06:50:48;19.02;;;14.73;;
55368;SDS011;41247;49.736;8.752;2023-08-30T06:54:29;16.88;;;14.02;;
55368;SDS011;41247;49.736;8.752;2023-08-30T06:58:13;17.58;;;14.57;;
55368;SDS011;41247;49.736;8.752;2023-08-30T07:01:54;21.05;;;15.10;;
55368;SDS011;41247;49.736;8.752;2023-08-30T07:05:34;19.00;;;14.10;;
55368;SDS011;41247;49.736;8.752;2023-08-30T07:09:17;20.83;;;15.00;;
55368;SDS011;41247;49.736;8.752;2023-08-30T07:12:58;23.27;;;14.88;;
55368;SDS011;41247;49.736;8.752;2023-08-30T07:16:38;18.58;;;14.07;;
55368;SDS011;41247;49.736;8.752;2023-08-30T07:20:19;18.10;;;13.90;;
55368;SDS011;41247;49.736;8.752;2023-08-30T07:23:59;16.65;;;13.25;;
55368;SDS011;41247;49.736;8.752;2023-08-30T07:27:40;18.58;;;12.85;;
55368;SDS011;41247;49.736;8.752;2023-08-30T07:31:21;17.77;;;12.55;;
55368;SDS011;41247;49.736;8.752;2023-08-30T07:35:02;15.02;;;11.90;;
55368;SDS011;41247;49.736;8.752;2023-08-30T07:38:43;15.82;;;12.60;;
55368;SDS011;41247;49.736;8.752;2023-08-30T07:42:24;14.73;;;11.32;;
55368;SDS011;41247;49.736;8.752;2023-08-30T07:46:04;13.88;;;11.18;;
55368;SDS011;41247;49.736;8.752;2023-08-30T07:49:45;15.77;;;11.88;;
55368;SDS011;41247;49.736;8.752;2023-08-30T07:53:26;14.55;;;10.80;;
55368;SDS011;41247;49.736;8.752;2023-08-30T07:57:07;13.23;;;10.63;;
55368;SDS011;41247;49.736;8.752;2023-08-30T08:00:51;13.82;;;10.05;;
55368;SDS011;41247;49.736;8.752;2023-08-30T08:04:33;10.95;;;9.43;;
55368;SDS011;41247;49.736;8.752;2023-08-30T08:08:15;12.85;;;10.18;;
55368;SDS011;41247;49.736;8.752;2023-08-30T08:11:56;11.45;;;8.88;;
55368;SDS011;41247;49.736;8.752;2023-08-30T08:15:37;14.95;;;9.95;;
55368;SDS011;41247;49.736;8.752;2023-08-30T08:19:17;11.98;;;9.18;;
55368;SDS011;41247;49.736;8.752;2023-08-30T08:26:42;11.68;;;8.93;;
55368;SDS011;41247;49.736;8.752;2023-08-30T08:30:23;10.63;;;8.48;;
55368;SDS011;41247;49.736;8.752;2023-08-30T08:34:07;10.50;;;9.00;;
55368;SDS011;41247;49.736;8.752;2023-08-30T08:37:50;12.32;;;9.75;;
55368;SDS011;41247;49.736;8.752;2023-08-30T08:41:35;13.82;;;9.10;;
55368;SDS011;41247;49.736;8.752;2023-08-30T08:45:19;10.00;;;7.90;;
55368;SDS011;41247;49.736;8.752;2023-08-30T08:49:02;8.73;;;7.57;;
55368;SDS011;41247;49.736;8.752;2023-08-30T08:52:49;8.75;;;7.13;;
55368;SDS011;41247;49.736;8.752;2023-08-30T08:56:33;11.07;;;7.80;;
55368;SDS011;41247;49.736;8.752;2023-08-30T09:00:13;13.05;;;7.72;;
55368;SDS011;41247;49.736;8.752;2023-08-30T09:03:54;10.35;;;7.30;;
55368;SDS011;41247;49.736;8.752;2023-08-30T09:07:35;8.90;;;7.47;;
55368;SDS011;41247;49.736;8.752;2023-08-30T09:11:16;9.35;;;6.93;;
55368;SDS011;41247;49.736;8.752;2023-08-30T09:14:57;10.77;;;7.45;;
55368;SDS011;41247;49.736;8.752;2023-08-30T09:18:37;7.95;;;6.85;;
55368;SDS011;41247;49.736;8.752;2023-08-30T09:22:18;10.02;;;7.30;;
55368;SDS011;41247;49.736;8.752;2023-08-30T09:25:58;10.20;;;7.30;;
55368;SDS011;41247;49.736;8.752;2023-08-30T09:29:40;10.80;;;7.80;;
55368;SDS011;41247;49.736;8.752;2023-08-30T09:33:29;8.35;;;6.95;;
55368;SDS011;41247;49.736;8.752;2023-08-30T09:37:19;8.52;;;7.60;;
55368;SDS011;41247;49.736;8.752;2023-08-30T09:41:06;15.25;;;7.65;;
55368;SDS011;41247;49.736;8.752;2023-08-30T09:44:46;9.57;;;7.13;;
55368;SDS011;41247;49.736;8.752;2023-08-30T09:48:28;11.93;;;7.90;;
55368;SDS011;41247;49.736;8.752;2023-08-30T09:52:09;14.82;;;8.82;;
55368;SDS011;41247;49.736;8.752;2023-08-30T09:55:50;11.35;;;8.80;;
55368;SDS011;41247;49.736;8.752;2023-08-30T09:59:32;15.05;;;9.15;;
55368;SDS011;41247;49.736;8.752;2023-08-30T10:06:57;9.02;;;7.93;;
55368;SDS011;41247;49.736;8.752;2023-08-30T10:10:39;12.32;;;7.88;;
55368;SDS011;41247;49.736;8.752;2023-08-30T10:14:19;9.52;;;7.22;;
55368;SDS011;41247;49.736;8.752;2023-08-30T10:18:00;7.35;;;6.57;;
55368;SDS011;41247;49.736;8.752;2023-08-30T10:21:43;8.75;;;6.85;;
55368;SDS011;41247;49.736;8.752;2023-08-30T10:25:27;7.47;;;6.05;;
55368;SDS011;41247;49.736;8.752;2023-08-30T10:29:10;8.95;;;6.40;;
55368;SDS011;41247;49.736;8.752;2023-08-30T10:32:52;7.87;;;6.60;;
55368;SDS011;41247;49.736;8.752;2023-08-30T10:36:33;10.65;;;6.72;;
55368;SDS011;41247;49.736;8.752;2023-08-30T10:40:14;7.57;;;6.78;;
55368;SDS011;41247;49.736;8.752;2023-08-30T10:43:55;7.45;;;6.13;;
55368;SDS011;41247;49.736;8.752;2023-08-30T10:47:36;7.85;;;5.85;;
55368;SDS011;41247;49.736;8.752;2023-08-30T10:51:21;5.85;;;5.22;;
55368;SDS011;41247;49.736;8.752;2023-08-30T10:55:15;6.45;;;5.68;;
55368;SDS011;41247;49.736;8.752;2023-08-30T10:58:57;6.47;;;5.70;;
55368;SDS011;41247;49.736;8.752;2023-08-30T11:02:38;6.30;;;4.60;;
55368;SDS011;41247;49.736;8.752;2023-08-30T11:06:18;7.30;;;4.00;;
55368;SDS011;41247;49.736;8.752;2023-08-30T11:10:00;5.13;;;3.60;;
55368;SDS011;41247;49.736;8.752;2023-08-30T11:13:44;3.97;;;3.40;;
55368;SDS011;41247;49.736;8.752;2023-08-30T11:17:26;4.30;;;3.65;;
55368;SDS011;41247;49.736;8.752;2023-08-30T11:21:07;4.20;;;3.40;;
55368;SDS011;41247;49.736;8.752;2023-08-30T11:24:48;4.47;;;4.07;;
55368;SDS011;41247;49.736;8.752;2023-08-30T11:28:28;7.13;;;3.40;;
55368;SDS011;41247;49.736;8.752;2023-08-30T11:35:54;6.00;;;3.50;;
55368;SDS011;41247;49.736;8.752;2023-08-30T11:39:34;4.43;;;2.83;;
55368;SDS011;41247;49.736;8.752;2023-08-30T11:43:15;4.82;;;3.03;;
55368;SDS011;41247;49.736;8.752;2023-08-30T11:46:59;6.25;;;3.08;;
55368;SDS011;41247;49.736;8.752;2023-08-30T11:50:40;5.07;;;3.20;;
55368;SDS011;41247;49.736;8.752;2023-08-30T11:54:23;5.10;;;3.10;;
55368;SDS011;41247;49.736;8.752;2023-08-30T11:58:04;4.45;;;2.75;;
55368;SDS011;41247;49.736;8.752;2023-08-30T12:01:45;4.72;;;2.70;;
55368;SDS011;41247;49.736;8.752;2023-08-30T12:05:25;5.50;;;2.88;;
55368;SDS011;41247;49.736;8.752;2023-08-30T12:09:11;6.22;;;2.67;;
55368;SDS011;41247;49.736;8.752;2023-08-30T12:12:52;5.57;;;2.80;;
55368;SDS011;41247;49.736;8.752;2023-08-30T12:16:39;5.38;;;2.97;;
55368;SDS011;41247;49.736;8.752;2023-08-30T12:20:21;3.97;;;3.00;;
55368;SDS011;41247;49.736;8.752;2023-08-30T12:24:01;3.72;;;3.38;;
55368;SDS011;41247;49.736;8.752;2023-08-30T12:27:44;4.07;;;3.67;;
55368;SDS011;41247;49.736;8.752;2023-08-30T12:31:26;5.93;;;3.35;;
55368;SDS011;41247;49.736;8.752;2023-08-30T12:35:06;4.22;;;3.00;;
55368;SDS011;41247;49.736;8.752;2023-08-30T12:38:47;3.25;;;2.90;;
55368;SDS011;41247;49.736;8.752;2023-08-30T12:42:28;5.10;;;3.35;;
55368;SDS011;41247;49.736;8.752;2023-08-30T12:46:08;5.47;;;3.10;;
55368;SDS011;41247;49.736;8.752;2023-08-30T12:49:49;4.78;;;3.30;;
55368;SDS011;41247;49.736;8.752;2023-08-30T12:53:30;5.10;;;3.28;;
55368;SDS011;41247;49.736;8.752;2023-08-30T12:57:10;4.35;;;2.97;;
55368;SDS011;41247;49.736;8.752;2023-08-30T13:00:51;4.20;;;3.10;;
55368;SDS011;41247;49.736;8.752;2023-08-30T13:04:31;3.17;;;2.88;;
55368;SDS011;41247;49.736;8.752;2023-08-30T13:08:13;3.25;;;2.53;;
55368;SDS011;41247;49.736;8.752;2023-08-30T13:11:54;5.07;;;2.75;;
55368;SDS011;41247;49.736;8.752;2023-08-30T13:15:34;7.55;;;2.60;;
55368;SDS011;41247;49.736;8.752;2023-08-30T13:19:15;3.65;;;2.78;;
55368;SDS011;41247;49.736;8.752;2023-08-30T13:22:56;3.10;;;2.60;;
55368;SDS011;41247;49.736;8.752;2023-08-30T13:26:37;4.00;;;2.10;;
55368;SDS011;41247;49.736;8.752;2023-08-30T13:30:17;7.40;;;2.65;;
55368;SDS011;41247;49.736;8.752;2023-08-30T13:33:58;3.50;;;2.40;;
55368;SDS011;41247;49.736;8.752;2023-08-30T13:37:38;2.97;;;2.45;;
55368;SDS011;41247;49.736;8.752;2023-08-30T13:41:20;2.90;;;2.58;;
55368;SDS011;41247;49.736;8.752;2023-08-30T13:45:01;4.60;;;2.92;;
55368;SDS011;41247;49.736;8.752;2023-08-30T13:48:41;3.42;;;2.50;;
55368;SDS011;41247;49.736;8.752;2023-08-30T13:52:22;3.42;;;2.60;;
55368;SDS011;41247;49.736;8.752;2023-08-30T13:56:03;4.00;;;2.47;;
55368;SDS011;41247;49.736;8.752;2023-08-30T13:59:44;4.13;;;2.20;;
55368;SDS011;41247;49.736;8.752;2023-08-30T14:08:01;3.15;;;1.95;;
55368;SDS011;41247;49.736;8.752;2023-08-30T14:11:42;3.58;;;2.00;;
55368;SDS011;41247;49.736;8.752;2023-08-30T14:15:23;3.70;;;1.65;;
55368;SDS011;41247;49.736;8.752;2023-08-30T14:19:03;3.17;;;1.70;;
55368;SDS011;41247;49.736;8.752;2023-08-30T14:22:51;3.78;;;2.15;;
55368;SDS011;41247;49.736;8.752;2023-08-30T14:26:31;3.03;;;1.67;;
55368;SDS011;41247;49.736;8.752;2023-08-30T14:30:12;4.00;;;2.28;;
55368;SDS011;41247;49.736;8.752;2023-08-30T14:33:54;5.47;;;2.22;;
55368;SDS011;41247;49.736;8.752;2023-08-30T14:37:35;3.92;;;1.92;;
55368;SDS011;41247;49.736;8.752;2023-08-30T14:41:16;3.35;;;2.25;;
55368;SDS011;41247;49.736;8.752;2023-08-30T14:44:56;3.72;;;2.03;;
55368;SDS011;41247;49.736;8.752;2023-08-30T14:48:37;5.03;;;2.17;;
55368;SDS011;41247;49.736;8.752;2023-08-30T14:52:19;3.63;;;2.17;;
55368;SDS011;41247;49.736;8.752;2023-08-30T14:55:59;4.78;;;2.53;;
55368;SDS011;41247;49.736;8.752;2023-08-30T14:59:40;4.03;;;2.33;;
55368;SDS011;41247;49.736;8.752;2023-08-30T15:03:20;3.10;;;2.17;;
55368;SDS011;41247;49.736;8.752;2023-08-30T15:07:01;4.25;;;2.17;;
55368;SDS011;41247;49.736;8.752;2023-08-30T15:10:42;3.80;;;2.13;;
55368;SDS011;41247;49.736;8.752;2023-08-30T15:14:22;4.80;;;2.58;;
55368;SDS011;41247;49.736;8.752;2023-08-30T15:18:03;3.08;;;2.08;;
55368;SDS011;41247;49.736;8.752;2023-08-30T15:21:44;4.60;;;2.05;;
55368;SDS011;41247;49.736;8.752;2023-08-30T15:25:25;5.05;;;2.10;;
55368;SDS011;41247;49.736;8.752;2023-08-30T15:29:06;2.20;;;2.00;;
55368;SDS011;41247;49.736;8.752;2023-08-30T15:32:46;5.25;;;2.20;;
55368;SDS011;41247;49.736;8.752;2023-08-30T15:36:27;3.55;;;1.83;;
55368;SDS011;41247;49.736;8.752;2023-08-30T15:40:07;3.85;;;1.92;;
55368;SDS011;41247;49.736;8.752;2023-08-30T15:43:48;4.80;;;2.40;;
55368;SDS011;41247;49.736;8.752;2023-08-30T15:47:29;4.25;;;2.28;;
55368;SDS011;41247;49.736;8.752;2023-08-30T15:51:25;4.97;;;2.38;;
55368;SDS011;41247;49.736;8.752;2023-08-30T15:55:07;4.47;;;2.00;;
55368;SDS011;41247;49.736;8.752;2023-08-30T15:58:48;3.17;;;2.20;;
55368;SDS011;41247;49.736;8.752;2023-08-30T16:02:29;2.88;;;2.10;;
55368;SDS011;41247;49.736;8.752;2023-08-30T16:06:09;3.90;;;2.30;;
55368;SDS011;41247;49.736;8.752;2023-08-30T16:09:50;3.85;;;2.40;;
55368;SDS011;41247;49.736;8.752;2023-08-30T16:13:30;4.53;;;2.40;;
55368;SDS011;41247;49.736;8.752;2023-08-30T16:17:11;4.15;;;2.92;;
55368;SDS011;41247;49.736;8.752;2023-08-30T16:20:52;4.25;;;2.30;;
55368;SDS011;41247;49.736;8.752;2023-08-30T16:24:32;4.75;;;2.35;;
55368;SDS011;41247;49.736;8.752;2023-08-30T16:28:14;4.78;;;2.70;;
55368;SDS011;41247;49.736;8.752;2023-08-30T16:31:54;7.22;;;2.60;;
55368;SDS011;41247;49.736;8.752;2023-08-30T16:35:35;7.25;;;2.92;;
55368;SDS011;41247;49.736;8.752;2023-08-30T16:39:16;6.07;;;2.42;;
55368;SDS011;41247;49.736;8.752;2023-08-30T16:42:57;4.80;;;2.42;;
55368;SDS011;41247;49.736;8.752;2023-08-30T16:46:38;3.67;;;2.40;;
55368;SDS011;41247;49.736;8.752;2023-08-30T16:50:18;3.90;;;2.78;;
55368;SDS011;41247;49.736;8.752;2023-08-30T16:53:59;5.28;;;2.63;;
55368;SDS011;41247;49.736;8.752;2023-08-30T16:57:40;5.30;;;2.90;;
55368;SDS011;41247;49.736;8.752;2023-08-30T17:01:20;4.07;;;2.55;;
55368;SDS011;41247;49.736;8.752;2023-08-30T17:05:01;4.03;;;2.90;;
55368;SDS011;41247;49.736;8.752;2023-08-30T17:08:42;5.03;;;2.58;;
55368;SDS011;41247;49.736;8.752;2023-08-30T17:12:23;5.85;;;2.67;;
55368;SDS011;41247;49.736;8.752;2023-08-30T17:16:03;6.32;;;2.90;;
55368;SDS011;41247;49.736;8.752;2023-08-30T17:19:44;4.18;;;2.35;;
55368;SDS011;41247;49.736;8.752;2023-08-30T17:23:25;5.55;;;2.58;;
55368;SDS011;41247;49.736;8.752;2023-08-30T17:27:09;4.00;;;2.45;;
55368;SDS011;41247;49.736;8.752;2023-08-30T17:30:50;5.65;;;2.50;;
55368;SDS011;41247;49.736;8.752;2023-08-30T17:34:30;4.05;;;2.78;;
55368;SDS011;41247;49.736;8.752;2023-08-30T17:38:11;6.93;;;2.67;;
55368;SDS011;41247;49.736;8.752;2023-08-30T17:41:52;4.72;;;2.80;;
55368;SDS011;41247;49.736;8.752;2023-08-30T17:45:32;5.82;;;2.70;;
55368;SDS011;41247;49.736;8.752;2023-08-30T17:49:15;4.53;;;2.97;;
55368;SDS011;41247;49.736;8.752;2023-08-30T17:52:56;6.43;;;2.80;;
55368;SDS011;41247;49.736;8.752;2023-08-30T17:56:36;7.22;;;2.78;;
55368;SDS011;41247;49.736;8.752;2023-08-30T18:00:17;5.72;;;2.78;;
55368;SDS011;41247;49.736;8.752;2023-08-30T18:03:58;3.97;;;2.33;;
55368;SDS011;41247;49.736;8.752;2023-08-30T18:07:38;6.32;;;3.05;;
55368;SDS011;41247;49.736;8.752;2023-08-30T18:11:19;5.22;;;2.72;;
55368;SDS011;41247;49.736;8.752;2023-08-30T18:15:01;5.15;;;2.80;;
55368;SDS011;41247;49.736;8.752;2023-08-30T18:18:42;5.10;;;2.85;;
55368;SDS011;41247;49.736;8.752;2023-08-30T18:22:23;6.63;;;2.97;;
55368;SDS011;41247;49.736;8.752;2023-08-30T18:26:03;5.00;;;2.80;;
55368;SDS011;41247;49.736;8.752;2023-08-30T18:29:44;3.83;;;2.53;;
55368;SDS011;41247;49.736;8.752;2023-08-30T18:33:25;7.97;;;2.65;;
55368;SDS011;41247;49.736;8.752;2023-08-30T18:37:05;23.92;;;4.13;;
55368;SDS011;41247;49.736;8.752;2023-08-30T18:40:46;33.67;;;3.75;;
55368;SDS011;41247;49.736;8.752;2023-08-30T18:44:27;7.03;;;1.58;;
55368;SDS011;41247;49.736;8.752;2023-08-30T18:48:08;2.75;;;1.50;;
55368;SDS011;41247;49.736;8.752;2023-08-30T18:51:49;7.45;;;2.47;;
55368;SDS011;41247;49.736;8.752;2023-08-30T18:55:29;4.88;;;1.60;;
55368;SDS011;41247;49.736;8.752;2023-08-30T18:59:11;2.58;;;1.20;;
55368;SDS011;41247;49.736;8.752;2023-08-30T19:02:52;7.28;;;1.50;;
55368;SDS011;41247;49.736;8.752;2023-08-30T19:06:32;2.10;;;1.20;;
55368;SDS011;41247;49.736;8.752;2023-08-30T19:10:13;3.38;;;1.33;;
55368;SDS011;41247;49.736;8.752;2023-08-30T19:13:53;2.72;;;1.38;;
55368;SDS011;41247;49.736;8.752;2023-08-30T19:17:34;5.28;;;1.70;;
55368;SDS011;41247;49.736;8.752;2023-08-30T19:21:15;4.85;;;1.70;;
55368;SDS011;41247;49.736;8.752;2023-08-30T19:24:55;6.25;;;1.70;;
55368;SDS011;41247;49.736;8.752;2023-08-30T19:28:36;3.78;;;2.00;;
55368;SDS011;41247;49.736;8.752;2023-08-30T19:32:40;5.07;;;2.40;;
55368;SDS011;41247;49.736;8.752;2023-08-30T19:36:49;4.32;;;2.10;;
55368;SDS011;41247;49.736;8.752;2023-08-30T19:40:53;4.90;;;2.67;;
55368;SDS011;41247;49.736;8.752;2023-08-30T19:44:42;4.93;;;2.20;;
55368;SDS011;41247;49.736;8.752;2023-08-30T19:48:23;3.95;;;2.25;;
55368;SDS011;41247;49.736;8.752;2023-08-30T19:52:04;7.80;;;2.90;;
55368;SDS011;41247;49.736;8.752;2023-08-30T19:55:44;6.43;;;2.83;;
55368;SDS011;41247;49.736;8.752;2023-08-30T19:59:25;4.35;;;2.80;;
55368;SDS011;41247;49.736;8.752;2023-08-30T20:03:12;6.53;;;2.72;;
55368;SDS011;41247;49.736;8.752;2023-08-30T20:06:53;5.43;;;3.10;;
55368;SDS011;41247;49.736;8.752;2023-08-30T20:10:33;5.95;;;3.10;;
55368;SDS011;41247;49.736;8.752;2023-08-30T20:14:14;6.13;;;3.70;;
55368;SDS011;41247;49.736;8.752;2023-08-30T20:17:54;8.13;;;4.22;;
55368;SDS011;41247;49.736;8.752;2023-08-30T20:21:38;7.30;;;4.28;;
55368;SDS011;41247;49.736;8.752;2023-08-30T20:25:27;7.68;;;4.25;;
55368;SDS011;41247;49.736;8.752;2023-08-30T20:29:09;9.75;;;4.25;;
55368;SDS011;41247;49.736;8.752;2023-08-30T20:33:00;9.88;;;4.35;;
55368;SDS011;41247;49.736;8.752;2023-08-30T20:36:40;4.90;;;4.03;;
55368;SDS011;41247;49.736;8.752;2023-08-30T20:40:21;10.20;;;4.45;;
55368;SDS011;41247;49.736;8.752;2023-08-30T20:44:20;8.30;;;4.40;;
55368;SDS011;41247;49.736;8.752;2023-08-30T20:48:06;9.18;;;4.20;;
55368;SDS011;41247;49.736;8.752;2023-08-30T20:51:50;6.90;;;4.60;;
55368;SDS011;41247;49.736;8.752;2023-08-30T20:55:41;9.38;;;5.13;;
55368;SDS011;41247;49.736;8.752;2023-08-30T20:59:36;9.88;;;6.03;;
55368;SDS011;41247;49.736;8.752;2023-08-30T21:03:22;13.18;;;6.13;;
55368;SDS011;41247;49.736;8.752;2023-08-30T21:07:05;8.77;;;6.20;;
55368;SDS011;41247;49.736;8.752;2023-08-30T21:10:46;9.70;;;5.93;;
55368;SDS011;41247;49.736;8.752;2023-08-30T21:14:30;8.82;;;6.63;;
55368;SDS011;41247;49.736;8.752;2023-08-30T21:18:10;12.38;;;7.20;;
55368;SDS011;41247;49.736;8.752;2023-08-30T21:21:54;10.10;;;6.90;;
55368;SDS011;41247;49.736;8.752;2023-08-30T21:25:35;16.73;;;8.57;;
55368;SDS011;41247;49.736;8.752;2023-08-30T21:29:22;14.90;;;8.40;;
55368;SDS011;41247;49.736;8.752;2023-08-30T21:33:10;14.85;;;8.63;;
55368;SDS011;41247;49.736;8.752;2023-08-30T21:37:01;19.00;;;9.27;;
55368;SDS011;41247;49.736;8.752;2023-08-30T21:40:45;16.95;;;9.00;;
55368;SDS011;41247;49.736;8.752;2023-08-30T21:44:28;17.38;;;10.60;;
55368;SDS011;41247;49.736;8.752;2023-08-30T21:52:38;19.77;;;10.75;;
55368;SDS011;41247;49.736;8.752;2023-08-30T22:01:07;23.13;;;13.27;;
55368;SDS011;41247;49.736;8.752;2023-08-30T22:04:51;24.67;;;14.37;;
55368;SDS011;41247;49.736;8.752;2023-08-30T22:08:48;22.45;;;14.20;;
55368;SDS011;41247;49.736;8.752;2023-08-30T22:12:55;29.42;;;14.27;;
55368;SDS011;41247;49.736;8.752;2023-08-30T22:16:41;21.83;;;13.90;;
55368;SDS011;41247;49.736;8.752;2023-08-30T22:20:24;23.50;;;14.30;;
55368;SDS011;41247;49.736;8.752;2023-08-30T22:24:08;27.33;;;15.03;;
55368;SDS011;41247;49.736;8.752;2023-08-30T22:27:59;27.30;;;14.50;;
55368;SDS011;41247;49.736;8.752;2023-08-30T22:31:42;27.13;;;15.73;;
55368;SDS011;41247;49.736;8.752;2023-08-30T22:35:23;24.65;;;15.00;;
55368;SDS011;41247;49.736;8.752;2023-08-30T22:39:03;28.70;;;16.15;;
55368;SDS011;41247;49.736;8.752;2023-08-30T22:42:44;24.73;;;15.05;;
55368;SDS011;41247;49.736;8.752;2023-08-30T22:46:25;21.13;;;14.63;;